PAOMUHMD

Guest
Details From PAOM - NOME
To UHMD - Provideniya Bay
Flight Number -
Tags generated
Created
Modified
Stats Distance 202 nm / 374 km
Max Altitude 24,200 ft / 7,376 m
Waypoints 4
Social Downloads 1
Likes 0
Share VATSIM

Download

Looking for another format? Having issues loading an existing format? Contact us
Advertisement - Login to hide

Notes

Basic altitude profile: - Ascent Rate: 2500ft/min - Ascent Speed: 250kts - Cruise Altitude: 35000ft - Cruise Speed: 420kts - Descent Rate: 1500ft/min - Descent Speed: 250kts Options: - Use NATs: yes - Use PACOTS: yes - Use low airways: yes - Use high airways: no

Route

PAOM YUREE G212 VALDA UHMD

ID Type Via Altitude Latitude Longitude Leg Dist Tot Dist Heading (true) Name
O PAOM APT - 0 ft / 0 m 64.51223˚ -165.44506˚ - 0 nm - NOME
YUREE FIX - 24,200 ft / 7,376 m 64.45503˚ -168.87867˚ 88 nm 88 nm 269° / 266° -
VALDA FIX G212 (AWY-LO) 12,900 ft / 3,932 m 64.39333˚ -170.91167˚ 52 nm 141 nm 267° / 265° -
O UHMD APT - 0 ft / 0 m 64.36548˚ -173.23902˚ 60 nm 202 nm 269° / 267° Provideniya Bay

Altitude Profile

Advertisement - Login to hide

Weather


0- 5 10 15 20 25 30 35+ Temperature / ° C

Clouds and Precipitation
Forecast for 2017-12-18 06:00 UTC. Updated 20 minutes ago

Ground ~20,000 ft ~40,000 ft Winds

PAOM

Details ICAO PAOM (OME)
Name NOME
Region USA (Alaska)
Timezone America/Nome (UTC-9.0)
Stats Elevation 37 ft / 11 m (AMSL)
Location 64.512227° -165.445062°
Runways 2
Magnetic Variation 10.031° E

METAR

PAOM 180314Z 29011KT 1 3/4SM -SN BR BKN019 OVC038 M07/M07 A2980

Decode

TAF

TAF PAOM 172338Z 1800/1824 28015KT P6SM -SN SCT015 OVC025 FM180900 28008KT 6SM -SN BR BKN015 OVC025 FM181200 12018KT 6SM -SN BR BKN015 OVC025 FM181800 10025G35KT 1 1/2SM -SN BLSN BKN003 OVC007

Decode

Departure Runways

ID Width Length Bearing (true) Bearing (mag) Surface Threshold Offset Overrun Length
03 151 ft / 46 m 5,560 ft / 1,695 m 41.63° 31.60° Asphalt 0 ft / 0 m 0 ft / 0 m
10 151 ft / 46 m 5,979 ft / 1,822 m 109.76° 99.73° Asphalt 0 ft / 0 m 0 ft / 0 m
21 151 ft / 46 m 5,560 ft / 1,695 m 221.65° 211.62° Asphalt 0 ft / 0 m 0 ft / 0 m
28 151 ft / 46 m 5,979 ft / 1,822 m 289.80° 279.77° Asphalt 0 ft / 0 m 0 ft / 0 m

UHMD

Details ICAO UHMD (PVS)
Name Provideniya Bay
Region Russia
Timezone Asia/Anadyr (UTC+12.0)
Stats Elevation 71 ft / 22 m (AMSL)
Location 64.365475° -173.239022°
Runways 2
Magnetic Variation 6.140° E

METAR

UHMD 180330Z 00000MPS P1000 NSC M12/M18 Q1011 RMK QFE758/1010

Decode

TAF

Not found

Destination Runways

ID Width Length Bearing (true) Bearing (mag) Surface Threshold Offset Overrun Length
01 299 ft / 91 m 8,140 ft / 2,481 m 21.46° 15.32° Gravel 0 ft / 0 m 0 ft / 0 m
03 213 ft / 65 m 3,998 ft / 1,219 m 32.10° 25.96° Gravel 0 ft / 0 m 0 ft / 0 m
19 299 ft / 91 m 8,140 ft / 2,481 m 201.48° 195.34° Gravel 0 ft / 0 m 0 ft / 0 m
21 213 ft / 65 m 3,998 ft / 1,219 m 212.11° 205.97° Gravel 0 ft / 0 m 0 ft / 0 m

Popular Alternatives